sensor_id;sensor_type;location;lat;lon;timestamp;P1;durP1;ratioP1;P2;durP2;ratioP2
69008;SDS011;56065;52.472;13.380;2024-02-26T00:02:04;9.80;;;4.47;;
69008;SDS011;56065;52.472;13.380;2024-02-26T00:04:29;9.82;;;4.53;;
69008;SDS011;56065;52.472;13.380;2024-02-26T00:06:55;10.83;;;4.67;;
69008;SDS011;56065;52.472;13.380;2024-02-26T00:09:21;11.83;;;4.17;;
69008;SDS011;56065;52.472;13.380;2024-02-26T00:11:46;11.68;;;4.38;;
69008;SDS011;56065;52.472;13.380;2024-02-26T00:14:12;10.82;;;4.72;;
69008;SDS011;56065;52.472;13.380;2024-02-26T00:16:41;14.30;;;4.93;;
69008;SDS011;56065;52.472;13.380;2024-02-26T00:19:07;10.45;;;4.80;;
69008;SDS011;56065;52.472;13.380;2024-02-26T00:21:32;15.20;;;5.80;;
69008;SDS011;56065;52.472;13.380;2024-02-26T00:23:58;13.32;;;5.20;;
69008;SDS011;56065;52.472;13.380;2024-02-26T00:26:23;12.03;;;5.33;;
69008;SDS011;56065;52.472;13.380;2024-02-26T00:28:48;14.73;;;5.20;;
69008;SDS011;56065;52.472;13.380;2024-02-26T00:31:14;12.13;;;5.67;;
69008;SDS011;56065;52.472;13.380;2024-02-26T00:33:39;11.90;;;4.87;;
69008;SDS011;56065;52.472;13.380;2024-02-26T00:36:04;14.67;;;5.20;;
69008;SDS011;56065;52.472;13.380;2024-02-26T00:38:30;12.45;;;5.47;;
69008;SDS011;56065;52.472;13.380;2024-02-26T00:40:55;15.53;;;6.83;;
69008;SDS011;56065;52.472;13.380;2024-02-26T00:43:21;12.30;;;6.33;;
69008;SDS011;56065;52.472;13.380;2024-02-26T00:45:46;13.47;;;6.23;;
69008;SDS011;56065;52.472;13.380;2024-02-26T00:48:12;12.52;;;5.85;;
69008;SDS011;56065;52.472;13.380;2024-02-26T00:50:38;14.32;;;6.30;;
69008;SDS011;56065;52.472;13.380;2024-02-26T00:53:04;13.90;;;5.80;;
69008;SDS011;56065;52.472;13.380;2024-02-26T00:55:29;10.80;;;4.67;;
69008;SDS011;56065;52.472;13.380;2024-02-26T00:57:55;14.80;;;5.43;;
69008;SDS011;56065;52.472;13.380;2024-02-26T01:00:20;13.27;;;5.53;;
69008;SDS011;56065;52.472;13.380;2024-02-26T01:02:46;13.82;;;5.97;;
69008;SDS011;56065;52.472;13.380;2024-02-26T01:05:14;12.88;;;5.70;;
69008;SDS011;56065;52.472;13.380;2024-02-26T01:07:41;13.70;;;6.25;;
69008;SDS011;56065;52.472;13.380;2024-02-26T01:10:06;14.20;;;5.93;;
69008;SDS011;56065;52.472;13.380;2024-02-26T01:12:35;12.00;;;5.68;;
69008;SDS011;56065;52.472;13.380;2024-02-26T01:15:01;15.07;;;6.00;;
69008;SDS011;56065;52.472;13.380;2024-02-26T01:17:30;42.72;;;6.93;;
69008;SDS011;56065;52.472;13.380;2024-02-26T01:19:55;14.65;;;5.75;;
69008;SDS011;56065;52.472;13.380;2024-02-26T01:22:21;13.87;;;5.33;;
69008;SDS011;56065;52.472;13.380;2024-02-26T01:24:47;13.35;;;6.13;;
69008;SDS011;56065;52.472;13.380;2024-02-26T01:27:12;13.67;;;6.23;;
69008;SDS011;56065;52.472;13.380;2024-02-26T01:29:39;13.18;;;6.00;;
69008;SDS011;56065;52.472;13.380;2024-02-26T01:32:04;14.43;;;5.83;;
69008;SDS011;56065;52.472;13.380;2024-02-26T01:34:30;13.00;;;5.00;;
69008;SDS011;56065;52.472;13.380;2024-02-26T01:36:56;13.63;;;5.53;;
69008;SDS011;56065;52.472;13.380;2024-02-26T01:39:21;11.97;;;5.30;;
69008;SDS011;56065;52.472;13.380;2024-02-26T01:41:47;14.20;;;6.43;;
69008;SDS011;56065;52.472;13.380;2024-02-26T01:44:12;14.77;;;5.80;;
69008;SDS011;56065;52.472;13.380;2024-02-26T01:46:41;12.43;;;5.35;;
69008;SDS011;56065;52.472;13.380;2024-02-26T01:49:07;16.20;;;5.80;;
69008;SDS011;56065;52.472;13.380;2024-02-26T01:51:36;12.77;;;5.10;;
69008;SDS011;56065;52.472;13.380;2024-02-26T01:54:02;12.37;;;5.87;;
69008;SDS011;56065;52.472;13.380;2024-02-26T01:56:29;11.18;;;5.15;;
69008;SDS011;56065;52.472;13.380;2024-02-26T01:58:58;11.48;;;4.65;;
69008;SDS011;56065;52.472;13.380;2024-02-26T02:01:27;11.35;;;4.88;;
69008;SDS011;56065;52.472;13.380;2024-02-26T02:03:55;13.15;;;5.13;;
69008;SDS011;56065;52.472;13.380;2024-02-26T02:06:22;11.37;;;4.70;;
69008;SDS011;56065;52.472;13.380;2024-02-26T02:08:48;11.00;;;4.18;;
69008;SDS011;56065;52.472;13.380;2024-02-26T02:11:13;12.30;;;5.73;;
69008;SDS011;56065;52.472;13.380;2024-02-26T02:13:40;11.77;;;4.97;;
69008;SDS011;56065;52.472;13.380;2024-02-26T02:16:06;12.45;;;5.32;;
69008;SDS011;56065;52.472;13.380;2024-02-26T02:18:32;12.43;;;5.60;;
69008;SDS011;56065;52.472;13.380;2024-02-26T02:20:59;13.87;;;5.23;;
69008;SDS011;56065;52.472;13.380;2024-02-26T02:23:25;11.38;;;5.00;;
69008;SDS011;56065;52.472;13.380;2024-02-26T02:25:51;11.17;;;5.30;;
69008;SDS011;56065;52.472;13.380;2024-02-26T02:28:17;15.75;;;6.00;;
69008;SDS011;56065;52.472;13.380;2024-02-26T02:30:43;12.90;;;5.50;;
69008;SDS011;56065;52.472;13.380;2024-02-26T02:33:08;11.23;;;5.47;;
69008;SDS011;56065;52.472;13.380;2024-02-26T02:35:34;13.43;;;5.30;;
69008;SDS011;56065;52.472;13.380;2024-02-26T02:37:59;9.60;;;4.35;;
69008;SDS011;56065;52.472;13.380;2024-02-26T02:40:25;11.33;;;4.57;;
69008;SDS011;56065;52.472;13.380;2024-02-26T02:42:50;12.67;;;5.10;;
69008;SDS011;56065;52.472;13.380;2024-02-26T02:45:15;10.20;;;4.13;;
69008;SDS011;56065;52.472;13.380;2024-02-26T02:47:41;10.00;;;4.40;;
69008;SDS011;56065;52.472;13.380;2024-02-26T02:50:06;10.27;;;3.77;;
69008;SDS011;56065;52.472;13.380;2024-02-26T02:52:32;9.65;;;3.58;;
69008;SDS011;56065;52.472;13.380;2024-02-26T02:54:57;9.33;;;3.47;;
69008;SDS011;56065;52.472;13.380;2024-02-26T02:57:23;9.43;;;3.10;;
69008;SDS011;56065;52.472;13.380;2024-02-26T02:59:48;9.18;;;3.85;;
69008;SDS011;56065;52.472;13.380;2024-02-26T03:02:14;9.57;;;3.80;;
69008;SDS011;56065;52.472;13.380;2024-02-26T03:04:39;9.47;;;3.80;;
69008;SDS011;56065;52.472;13.380;2024-02-26T03:07:04;9.43;;;4.10;;
69008;SDS011;56065;52.472;13.380;2024-02-26T03:09:30;9.30;;;3.83;;
69008;SDS011;56065;52.472;13.380;2024-02-26T03:11:55;10.30;;;3.80;;
69008;SDS011;56065;52.472;13.380;2024-02-26T03:14:21;10.07;;;4.20;;
69008;SDS011;56065;52.472;13.380;2024-02-26T03:16:46;10.70;;;3.97;;
69008;SDS011;56065;52.472;13.380;2024-02-26T03:19:14;7.50;;;3.50;;
69008;SDS011;56065;52.472;13.380;2024-02-26T03:21:41;9.77;;;3.92;;
69008;SDS011;56065;52.472;13.380;2024-02-26T03:24:07;12.05;;;4.43;;
69008;SDS011;56065;52.472;13.380;2024-02-26T03:26:35;8.87;;;3.93;;
69008;SDS011;56065;52.472;13.380;2024-02-26T03:29:01;9.18;;;3.53;;
69008;SDS011;56065;52.472;13.380;2024-02-26T03:31:27;8.52;;;3.53;;
69008;SDS011;56065;52.472;13.380;2024-02-26T03:33:52;9.63;;;3.87;;
69008;SDS011;56065;52.472;13.380;2024-02-26T03:36:18;9.73;;;3.47;;
69008;SDS011;56065;52.472;13.380;2024-02-26T03:38:43;11.10;;;3.70;;
69008;SDS011;56065;52.472;13.380;2024-02-26T03:41:09;11.30;;;4.10;;
69008;SDS011;56065;52.472;13.380;2024-02-26T03:43:34;9.50;;;3.70;;
69008;SDS011;56065;52.472;13.380;2024-02-26T03:45:59;9.83;;;3.30;;
69008;SDS011;56065;52.472;13.380;2024-02-26T03:48:25;7.90;;;3.33;;
69008;SDS011;56065;52.472;13.380;2024-02-26T03:50:50;7.95;;;3.45;;
69008;SDS011;56065;52.472;13.380;2024-02-26T03:53:16;10.20;;;3.40;;
69008;SDS011;56065;52.472;13.380;2024-02-26T03:55:41;11.97;;;4.13;;
69008;SDS011;56065;52.472;13.380;2024-02-26T03:58:07;7.80;;;3.55;;
69008;SDS011;56065;52.472;13.380;2024-02-26T04:00:33;8.53;;;3.40;;
69008;SDS011;56065;52.472;13.380;2024-02-26T04:02:58;15.10;;;4.20;;
69008;SDS011;56065;52.472;13.380;2024-02-26T04:05:23;9.57;;;3.77;;
69008;SDS011;56065;52.472;13.380;2024-02-26T04:07:49;9.43;;;3.60;;
69008;SDS011;56065;52.472;13.380;2024-02-26T04:10:14;9.05;;;3.58;;
69008;SDS011;56065;52.472;13.380;2024-02-26T04:12:40;8.80;;;3.30;;
69008;SDS011;56065;52.472;13.380;2024-02-26T04:15:07;8.27;;;3.35;;
69008;SDS011;56065;52.472;13.380;2024-02-26T04:17:33;10.02;;;3.47;;
69008;SDS011;56065;52.472;13.380;2024-02-26T04:19:58;9.23;;;3.33;;
69008;SDS011;56065;52.472;13.380;2024-02-26T04:22:24;7.43;;;3.28;;
69008;SDS011;56065;52.472;13.380;2024-02-26T04:24:49;11.37;;;4.13;;
69008;SDS011;56065;52.472;13.380;2024-02-26T04:27:14;8.00;;;3.40;;
69008;SDS011;56065;52.472;13.380;2024-02-26T04:29:40;8.20;;;3.93;;
69008;SDS011;56065;52.472;13.380;2024-02-26T04:32:05;8.70;;;3.43;;
69008;SDS011;56065;52.472;13.380;2024-02-26T04:34:30;8.48;;;3.53;;
69008;SDS011;56065;52.472;13.380;2024-02-26T04:36:56;7.93;;;3.40;;
69008;SDS011;56065;52.472;13.380;2024-02-26T04:39:21;8.40;;;3.70;;
69008;SDS011;56065;52.472;13.380;2024-02-26T04:41:46;10.20;;;3.63;;
69008;SDS011;56065;52.472;13.380;2024-02-26T04:44:12;8.97;;;3.67;;
69008;SDS011;56065;52.472;13.380;2024-02-26T04:46:37;9.33;;;3.80;;
69008;SDS011;56065;52.472;13.380;2024-02-26T04:49:03;10.73;;;3.93;;
69008;SDS011;56065;52.472;13.380;2024-02-26T04:51:28;8.73;;;4.10;;
69008;SDS011;56065;52.472;13.380;2024-02-26T04:53:53;9.53;;;3.87;;
69008;SDS011;56065;52.472;13.380;2024-02-26T04:56:20;8.20;;;3.50;;
69008;SDS011;56065;52.472;13.380;2024-02-26T04:58:46;9.55;;;3.97;;
69008;SDS011;56065;52.472;13.380;2024-02-26T05:01:11;10.03;;;4.00;;
69008;SDS011;56065;52.472;13.380;2024-02-26T05:03:37;12.60;;;4.25;;
69008;SDS011;56065;52.472;13.380;2024-02-26T05:06:02;10.43;;;4.13;;
69008;SDS011;56065;52.472;13.380;2024-02-26T05:08:28;10.63;;;3.73;;
69008;SDS011;56065;52.472;13.380;2024-02-26T05:10:55;11.55;;;4.03;;
69008;SDS011;56065;52.472;13.380;2024-02-26T05:13:21;11.27;;;4.20;;
69008;SDS011;56065;52.472;13.380;2024-02-26T05:15:46;12.07;;;4.43;;
69008;SDS011;56065;52.472;13.380;2024-02-26T05:18:14;9.82;;;3.50;;
69008;SDS011;56065;52.472;13.380;2024-02-26T05:20:40;9.97;;;4.07;;
69008;SDS011;56065;52.472;13.380;2024-02-26T05:23:05;11.80;;;4.45;;
69008;SDS011;56065;52.472;13.380;2024-02-26T05:25:31;10.47;;;3.90;;
69008;SDS011;56065;52.472;13.380;2024-02-26T05:27:56;9.70;;;4.30;;
69008;SDS011;56065;52.472;13.380;2024-02-26T05:30:21;9.93;;;4.13;;
69008;SDS011;56065;52.472;13.380;2024-02-26T05:32:47;10.70;;;4.03;;
69008;SDS011;56065;52.472;13.380;2024-02-26T05:35:12;12.40;;;4.78;;
69008;SDS011;56065;52.472;13.380;2024-02-26T05:37:38;11.27;;;4.60;;
69008;SDS011;56065;52.472;13.380;2024-02-26T05:40:03;12.30;;;4.70;;
69008;SDS011;56065;52.472;13.380;2024-02-26T05:42:30;12.40;;;4.90;;
69008;SDS011;56065;52.472;13.380;2024-02-26T05:44:55;11.17;;;4.20;;
69008;SDS011;56065;52.472;13.380;2024-02-26T05:47:20;10.30;;;4.70;;
69008;SDS011;56065;52.472;13.380;2024-02-26T05:49:46;10.20;;;4.13;;
69008;SDS011;56065;52.472;13.380;2024-02-26T05:52:11;10.77;;;4.20;;
69008;SDS011;56065;52.472;13.380;2024-02-26T05:54:36;11.93;;;5.10;;
69008;SDS011;56065;52.472;13.380;2024-02-26T05:57:02;11.93;;;4.43;;
69008;SDS011;56065;52.472;13.380;2024-02-26T05:59:27;11.18;;;4.80;;
69008;SDS011;56065;52.472;13.380;2024-02-26T06:01:53;10.80;;;4.40;;
69008;SDS011;56065;52.472;13.380;2024-02-26T06:04:18;12.37;;;4.93;;
69008;SDS011;56065;52.472;13.380;2024-02-26T06:06:44;11.83;;;5.63;;
69008;SDS011;56065;52.472;13.380;2024-02-26T06:09:10;11.88;;;5.20;;
69008;SDS011;56065;52.472;13.380;2024-02-26T06:11:36;15.32;;;6.38;;
69008;SDS011;56065;52.472;13.380;2024-02-26T06:14:01;13.45;;;5.53;;
69008;SDS011;56065;52.472;13.380;2024-02-26T06:16:27;11.93;;;4.50;;
69008;SDS011;56065;52.472;13.380;2024-02-26T06:18:52;13.03;;;4.67;;
69008;SDS011;56065;52.472;13.380;2024-02-26T06:21:18;14.85;;;5.88;;
69008;SDS011;56065;52.472;13.380;2024-02-26T06:23:43;17.03;;;6.30;;
69008;SDS011;56065;52.472;13.380;2024-02-26T06:26:09;15.10;;;6.03;;
69008;SDS011;56065;52.472;13.380;2024-02-26T06:28:35;13.30;;;5.90;;
69008;SDS011;56065;52.472;13.380;2024-02-26T06:31:01;16.93;;;6.57;;
69008;SDS011;56065;52.472;13.380;2024-02-26T06:33:26;13.93;;;6.20;;
69008;SDS011;56065;52.472;13.380;2024-02-26T06:35:52;17.40;;;6.43;;
69008;SDS011;56065;52.472;13.380;2024-02-26T06:38:17;14.03;;;6.60;;
69008;SDS011;56065;52.472;13.380;2024-02-26T06:40:43;14.45;;;6.00;;
69008;SDS011;56065;52.472;13.380;2024-02-26T06:43:09;13.23;;;6.18;;
69008;SDS011;56065;52.472;13.380;2024-02-26T06:45:35;14.73;;;7.23;;
69008;SDS011;56065;52.472;13.380;2024-02-26T06:48:00;16.47;;;6.50;;
69008;SDS011;56065;52.472;13.380;2024-02-26T06:50:26;14.10;;;6.13;;
69008;SDS011;56065;52.472;13.380;2024-02-26T06:52:51;15.40;;;6.00;;
69008;SDS011;56065;52.472;13.380;2024-02-26T06:55:16;14.40;;;6.60;;
69008;SDS011;56065;52.472;13.380;2024-02-26T06:57:42;16.57;;;5.77;;
69008;SDS011;56065;52.472;13.380;2024-02-26T07:00:07;19.13;;;7.00;;
69008;SDS011;56065;52.472;13.380;2024-02-26T07:02:33;18.98;;;6.88;;
69008;SDS011;56065;52.472;13.380;2024-02-26T07:04:59;15.53;;;6.47;;
69008;SDS011;56065;52.472;13.380;2024-02-26T07:07:24;15.00;;;6.32;;
69008;SDS011;56065;52.472;13.380;2024-02-26T07:09:50;14.25;;;6.32;;
69008;SDS011;56065;52.472;13.380;2024-02-26T07:12:15;16.13;;;6.70;;
69008;SDS011;56065;52.472;13.380;2024-02-26T07:14:41;16.30;;;7.15;;
69008;SDS011;56065;52.472;13.380;2024-02-26T07:17:07;14.88;;;6.70;;
69008;SDS011;56065;52.472;13.380;2024-02-26T07:19:33;16.07;;;6.53;;
69008;SDS011;56065;52.472;13.380;2024-02-26T07:21:58;15.35;;;6.72;;
69008;SDS011;56065;52.472;13.380;2024-02-26T07:24:26;17.30;;;7.28;;
69008;SDS011;56065;52.472;13.380;2024-02-26T07:26:51;16.03;;;6.60;;
69008;SDS011;56065;52.472;13.380;2024-02-26T07:29:19;14.45;;;6.90;;
69008;SDS011;56065;52.472;13.380;2024-02-26T07:31:44;14.77;;;6.47;;
69008;SDS011;56065;52.472;13.380;2024-02-26T07:34:10;13.87;;;6.07;;
69008;SDS011;56065;52.472;13.380;2024-02-26T07:36:35;13.73;;;5.83;;
69008;SDS011;56065;52.472;13.380;2024-02-26T07:39:01;14.73;;;6.32;;
69008;SDS011;56065;52.472;13.380;2024-02-26T07:41:26;12.67;;;6.43;;
69008;SDS011;56065;52.472;13.380;2024-02-26T07:43:52;14.30;;;6.93;;
69008;SDS011;56065;52.472;13.380;2024-02-26T07:46:17;13.30;;;6.10;;
69008;SDS011;56065;52.472;13.380;2024-02-26T07:48:42;15.23;;;6.57;;
69008;SDS011;56065;52.472;13.380;2024-02-26T07:51:08;14.53;;;6.90;;
69008;SDS011;56065;52.472;13.380;2024-02-26T07:53:33;14.33;;;7.17;;
69008;SDS011;56065;52.472;13.380;2024-02-26T07:55:59;14.20;;;6.77;;
69008;SDS011;56065;52.472;13.380;2024-02-26T07:58:24;14.27;;;7.23;;
69008;SDS011;56065;52.472;13.380;2024-02-26T08:00:49;15.90;;;7.10;;
69008;SDS011;56065;52.472;13.380;2024-02-26T08:03:15;15.13;;;6.37;;
69008;SDS011;56065;52.472;13.380;2024-02-26T08:05:40;14.53;;;6.93;;
69008;SDS011;56065;52.472;13.380;2024-02-26T08:08:07;29.65;;;7.15;;
69008;SDS011;56065;52.472;13.380;2024-02-26T08:10:33;17.20;;;7.73;;
69008;SDS011;56065;52.472;13.380;2024-02-26T08:12:58;16.63;;;6.88;;
69008;SDS011;56065;52.472;13.380;2024-02-26T08:15:33;18.27;;;7.03;;
69008;SDS011;56065;52.472;13.380;2024-02-26T08:18:00;17.77;;;7.68;;
69008;SDS011;56065;52.472;13.380;2024-02-26T08:20:29;17.65;;;7.70;;
69008;SDS011;56065;52.472;13.380;2024-02-26T08:22:55;14.38;;;6.80;;
69008;SDS011;56065;52.472;13.380;2024-02-26T08:25:21;16.90;;;6.93;;
69008;SDS011;56065;52.472;13.380;2024-02-26T08:27:46;15.90;;;7.55;;
69008;SDS011;56065;52.472;13.380;2024-02-26T08:30:12;14.90;;;7.27;;
69008;SDS011;56065;52.472;13.380;2024-02-26T08:32:41;14.52;;;7.15;;
69008;SDS011;56065;52.472;13.380;2024-02-26T08:35:07;17.40;;;7.13;;
69008;SDS011;56065;52.472;13.380;2024-02-26T08:37:33;15.43;;;6.83;;
69008;SDS011;56065;52.472;13.380;2024-02-26T08:39:58;16.20;;;7.20;;
69008;SDS011;56065;52.472;13.380;2024-02-26T08:42:23;15.18;;;7.40;;
69008;SDS011;56065;52.472;13.380;2024-02-26T08:44:49;14.03;;;7.07;;
69008;SDS011;56065;52.472;13.380;2024-02-26T08:47:14;16.43;;;6.83;;
69008;SDS011;56065;52.472;13.380;2024-02-26T08:49:44;13.83;;;7.23;;
69008;SDS011;56065;52.472;13.380;2024-02-26T08:52:10;16.45;;;7.03;;
69008;SDS011;56065;52.472;13.380;2024-02-26T08:54:35;15.83;;;7.37;;
69008;SDS011;56065;52.472;13.380;2024-02-26T08:57:00;12.87;;;7.10;;
69008;SDS011;56065;52.472;13.380;2024-02-26T08:59:26;16.23;;;7.43;;
69008;SDS011;56065;52.472;13.380;2024-02-26T09:01:51;16.63;;;8.05;;
69008;SDS011;56065;52.472;13.380;2024-02-26T09:04:16;15.93;;;8.00;;
69008;SDS011;56065;52.472;13.380;2024-02-26T09:06:42;16.93;;;8.53;;
69008;SDS011;56065;52.472;13.380;2024-02-26T09:09:07;16.13;;;7.80;;
69008;SDS011;56065;52.472;13.380;2024-02-26T09:11:32;15.07;;;7.33;;
69008;SDS011;56065;52.472;13.380;2024-02-26T09:13:59;14.10;;;7.55;;
69008;SDS011;56065;52.472;13.380;2024-02-26T09:16:24;16.20;;;7.60;;
69008;SDS011;56065;52.472;13.380;2024-02-26T09:18:49;16.40;;;7.83;;
69008;SDS011;56065;52.472;13.380;2024-02-26T09:21:15;16.20;;;7.30;;
69008;SDS011;56065;52.472;13.380;2024-02-26T09:23:43;14.73;;;7.38;;
69008;SDS011;56065;52.472;13.380;2024-02-26T09:26:08;15.47;;;7.90;;
69008;SDS011;56065;52.472;13.380;2024-02-26T09:28:34;16.03;;;7.57;;
69008;SDS011;56065;52.472;13.380;2024-02-26T09:31:03;13.75;;;7.18;;
69008;SDS011;56065;52.472;13.380;2024-02-26T09:33:29;16.15;;;7.65;;
69008;SDS011;56065;52.472;13.380;2024-02-26T09:35:54;15.83;;;7.30;;
69008;SDS011;56065;52.472;13.380;2024-02-26T09:38:20;13.40;;;6.90;;
69008;SDS011;56065;52.472;13.380;2024-02-26T09:40:45;14.33;;;7.23;;
69008;SDS011;56065;52.472;13.380;2024-02-26T09:43:11;17.90;;;6.60;;
69008;SDS011;56065;52.472;13.380;2024-02-26T09:45:39;14.63;;;7.68;;
69008;SDS011;56065;52.472;13.380;2024-02-26T09:48:06;13.80;;;6.90;;
69008;SDS011;56065;52.472;13.380;2024-02-26T09:50:33;15.05;;;6.57;;
69008;SDS011;56065;52.472;13.380;2024-02-26T09:52:59;16.77;;;7.23;;
69008;SDS011;56065;52.472;13.380;2024-02-26T09:55:27;14.70;;;6.85;;
69008;SDS011;56065;52.472;13.380;2024-02-26T09:57:53;15.25;;;6.57;;
69008;SDS011;56065;52.472;13.380;2024-02-26T10:00:19;14.03;;;6.17;;
69008;SDS011;56065;52.472;13.380;2024-02-26T10:02:47;12.77;;;6.75;;
69008;SDS011;56065;52.472;13.380;2024-02-26T10:05:14;13.30;;;6.05;;
69008;SDS011;56065;52.472;13.380;2024-02-26T10:07:42;16.48;;;6.50;;
69008;SDS011;56065;52.472;13.380;2024-02-26T10:10:09;12.55;;;6.28;;
69008;SDS011;56065;52.472;13.380;2024-02-26T10:12:34;11.60;;;6.30;;
69008;SDS011;56065;52.472;13.380;2024-02-26T10:15:00;14.00;;;7.40;;
69008;SDS011;56065;52.472;13.380;2024-02-26T10:17:26;12.32;;;7.15;;
69008;SDS011;56065;52.472;13.380;2024-02-26T10:19:51;13.53;;;7.13;;
69008;SDS011;56065;52.472;13.380;2024-02-26T10:22:21;11.35;;;5.72;;
69008;SDS011;56065;52.472;13.380;2024-02-26T10:24:47;12.38;;;6.38;;
69008;SDS011;56065;52.472;13.380;2024-02-26T10:27:12;10.03;;;5.77;;
69008;SDS011;56065;52.472;13.380;2024-02-26T10:29:38;12.40;;;5.70;;
69008;SDS011;56065;52.472;13.380;2024-02-26T10:32:03;11.33;;;5.97;;
69008;SDS011;56065;52.472;13.380;2024-02-26T10:34:29;11.20;;;5.88;;
69008;SDS011;56065;52.472;13.380;2024-02-26T10:36:55;11.43;;;5.32;;
69008;SDS011;56065;52.472;13.380;2024-02-26T10:39:21;12.60;;;5.70;;
69008;SDS011;56065;52.472;13.380;2024-02-26T10:41:46;15.63;;;7.73;;
69008;SDS011;56065;52.472;13.380;2024-02-26T10:44:12;12.87;;;6.53;;
69008;SDS011;56065;52.472;13.380;2024-02-26T10:46:38;12.07;;;5.63;;
69008;SDS011;56065;52.472;13.380;2024-02-26T10:49:05;12.10;;;4.90;;
69008;SDS011;56065;52.472;13.380;2024-02-26T10:51:31;10.73;;;5.28;;
69008;SDS011;56065;52.472;13.380;2024-02-26T10:54:00;10.57;;;5.07;;
69008;SDS011;56065;52.472;13.380;2024-02-26T10:56:29;10.65;;;5.25;;
69008;SDS011;56065;52.472;13.380;2024-02-26T10:58:58;13.65;;;5.80;;
69008;SDS011;56065;52.472;13.380;2024-02-26T11:01:24;10.57;;;4.80;;
69008;SDS011;56065;52.472;13.380;2024-02-26T11:03:52;9.50;;;4.95;;
69008;SDS011;56065;52.472;13.380;2024-02-26T11:06:18;9.47;;;4.43;;
69008;SDS011;56065;52.472;13.380;2024-02-26T11:08:47;9.82;;;4.97;;
69008;SDS011;56065;52.472;13.380;2024-02-26T11:11:14;10.48;;;5.30;;
69008;SDS011;56065;52.472;13.380;2024-02-26T11:13:40;10.18;;;4.70;;
69008;SDS011;56065;52.472;13.380;2024-02-26T11:16:10;10.30;;;4.45;;
69008;SDS011;56065;52.472;13.380;2024-02-26T11:18:37;9.50;;;4.47;;
69008;SDS011;56065;52.472;13.380;2024-02-26T11:21:04;12.13;;;4.63;;
69008;SDS011;56065;52.472;13.380;2024-02-26T11:23:33;10.23;;;4.35;;
69008;SDS011;56065;52.472;13.380;2024-02-26T11:26:01;12.55;;;5.25;;
69008;SDS011;56065;52.472;13.380;2024-02-26T11:28:29;13.05;;;5.03;;
69008;SDS011;56065;52.472;13.380;2024-02-26T11:30:55;10.10;;;4.27;;
69008;SDS011;56065;52.472;13.380;2024-02-26T11:33:24;9.85;;;4.78;;
69008;SDS011;56065;52.472;13.380;2024-02-26T11:35:50;9.40;;;4.40;;
69008;SDS011;56065;52.472;13.380;2024-02-26T11:38:20;10.73;;;4.37;;
69008;SDS011;56065;52.472;13.380;2024-02-26T11:40:48;8.20;;;4.47;;
69008;SDS011;56065;52.472;13.380;2024-02-26T11:43:15;9.07;;;4.25;;
69008;SDS011;56065;52.472;13.380;2024-02-26T11:48:11;11.02;;;4.65;;
69008;SDS011;56065;52.472;13.380;2024-02-26T11:50:47;9.85;;;4.55;;
69008;SDS011;56065;52.472;13.380;2024-02-26T11:53:25;9.93;;;4.20;;
69008;SDS011;56065;52.472;13.380;2024-02-26T11:59:04;8.65;;;3.92;;
69008;SDS011;56065;52.472;13.380;2024-02-26T12:01:48;9.02;;;4.15;;
69008;SDS011;56065;52.472;13.380;2024-02-26T12:04:21;8.70;;;4.30;;
69008;SDS011;56065;52.472;13.380;2024-02-26T12:06:52;9.07;;;4.33;;
69008;SDS011;56065;52.472;13.380;2024-02-26T12:12:02;8.95;;;4.05;;
69008;SDS011;56065;52.472;13.380;2024-02-26T12:14:37;8.02;;;4.07;;
69008;SDS011;56065;52.472;13.380;2024-02-26T12:17:06;9.50;;;4.95;;
69008;SDS011;56065;52.472;13.380;2024-02-26T12:19:34;8.83;;;4.27;;
69008;SDS011;56065;52.472;13.380;2024-02-26T12:22:01;9.55;;;4.13;;
69008;SDS011;56065;52.472;13.380;2024-02-26T12:24:27;9.48;;;4.28;;
69008;SDS011;56065;52.472;13.380;2024-02-26T12:26:52;10.23;;;4.37;;
69008;SDS011;56065;52.472;13.380;2024-02-26T12:29:18;11.47;;;4.13;;
69008;SDS011;56065;52.472;13.380;2024-02-26T12:31:43;8.30;;;4.27;;
69008;SDS011;56065;52.472;13.380;2024-02-26T12:34:09;7.63;;;3.95;;
69008;SDS011;56065;52.472;13.380;2024-02-26T12:36:34;11.07;;;4.57;;
69008;SDS011;56065;52.472;13.380;2024-02-26T12:39:01;9.45;;;4.40;;
69008;SDS011;56065;52.472;13.380;2024-02-26T12:41:27;10.38;;;4.10;;
69008;SDS011;56065;52.472;13.380;2024-02-26T12:43:55;10.20;;;4.10;;
69008;SDS011;56065;52.472;13.380;2024-02-26T12:46:21;9.43;;;3.30;;
69008;SDS011;56065;52.472;13.380;2024-02-26T12:48:46;8.67;;;4.53;;
69008;SDS011;56065;52.472;13.380;2024-02-26T12:51:12;9.33;;;4.20;;
69008;SDS011;56065;52.472;13.380;2024-02-26T12:53:40;8.43;;;3.60;;
69008;SDS011;56065;52.472;13.380;2024-02-26T12:56:08;9.97;;;4.80;;
69008;SDS011;56065;52.472;13.380;2024-02-26T12:58:34;10.25;;;5.07;;
69008;SDS011;56065;52.472;13.380;2024-02-26T13:01:00;8.02;;;3.97;;
69008;SDS011;56065;52.472;13.380;2024-02-26T13:03:26;9.57;;;4.38;;
69008;SDS011;56065;52.472;13.380;2024-02-26T13:05:52;9.20;;;4.47;;
69008;SDS011;56065;52.472;13.380;2024-02-26T13:08:21;10.18;;;4.40;;
69008;SDS011;56065;52.472;13.380;2024-02-26T13:10:48;11.77;;;4.28;;
69008;SDS011;56065;52.472;13.380;2024-02-26T13:13:17;8.57;;;4.00;;
69008;SDS011;56065;52.472;13.380;2024-02-26T13:15:45;10.87;;;4.93;;
69008;SDS011;56065;52.472;13.380;2024-02-26T13:18:12;10.85;;;5.10;;
69008;SDS011;56065;52.472;13.380;2024-02-26T13:20:38;10.50;;;5.28;;
69008;SDS011;56065;52.472;13.380;2024-02-26T13:23:07;10.98;;;5.22;;
69008;SDS011;56065;52.472;13.380;2024-02-26T13:25:35;10.50;;;4.50;;
69008;SDS011;56065;52.472;13.380;2024-02-26T13:28:25;8.33;;;4.20;;
69008;SDS011;56065;52.472;13.380;2024-02-26T13:30:52;9.00;;;3.55;;
69008;SDS011;56065;52.472;13.380;2024-02-26T13:33:21;8.82;;;3.42;;
69008;SDS011;56065;52.472;13.380;2024-02-26T13:35:47;9.68;;;4.18;;
69008;SDS011;56065;52.472;13.380;2024-02-26T13:38:12;8.10;;;3.50;;
69008;SDS011;56065;52.472;13.380;2024-02-26T13:40:38;10.93;;;3.77;;
69008;SDS011;56065;52.472;13.380;2024-02-26T13:43:04;8.60;;;3.30;;
69008;SDS011;56065;52.472;13.380;2024-02-26T13:45:29;9.23;;;3.93;;
69008;SDS011;56065;52.472;13.380;2024-02-26T13:47:59;11.27;;;3.97;;
69008;SDS011;56065;52.472;13.380;2024-02-26T13:50:26;7.28;;;2.80;;
69008;SDS011;56065;52.472;13.380;2024-02-26T13:52:52;8.20;;;3.40;;
69008;SDS011;56065;52.472;13.380;2024-02-26T13:55:19;7.13;;;2.85;;
69008;SDS011;56065;52.472;13.380;2024-02-26T13:57:45;7.32;;;2.85;;
69008;SDS011;56065;52.472;13.380;2024-02-26T14:00:11;6.80;;;2.80;;
69008;SDS011;56065;52.472;13.380;2024-02-26T14:02:37;8.30;;;3.03;;
69008;SDS011;56065;52.472;13.380;2024-02-26T14:05:02;8.10;;;3.40;;
69008;SDS011;56065;52.472;13.380;2024-02-26T14:07:29;8.90;;;2.60;;
69008;SDS011;56065;52.472;13.380;2024-02-26T14:09:57;7.57;;;3.23;;
69008;SDS011;56065;52.472;13.380;2024-02-26T14:12:22;9.70;;;3.60;;
69008;SDS011;56065;52.472;13.380;2024-02-26T14:14:48;7.37;;;2.90;;
69008;SDS011;56065;52.472;13.380;2024-02-26T14:17:13;8.13;;;2.67;;
69008;SDS011;56065;52.472;13.380;2024-02-26T14:19:40;8.38;;;2.95;;
69008;SDS011;56065;52.472;13.380;2024-02-26T14:22:10;11.30;;;3.25;;
69008;SDS011;56065;52.472;13.380;2024-02-26T14:24:36;8.15;;;3.08;;
69008;SDS011;56065;52.472;13.380;2024-02-26T14:27:01;8.17;;;3.20;;
69008;SDS011;56065;52.472;13.380;2024-02-26T14:29:27;8.07;;;3.20;;